createdAt,value
2019-03-13T00:00:58.943Z,2.58
2019-03-13T00:03:29.192Z,4.85
2019-03-13T00:05:58.977Z,3.50
2019-03-13T00:08:29.213Z,4.58
2019-03-13T00:10:59.083Z,2.70
2019-03-13T00:13:28.963Z,2.47
2019-03-13T00:15:58.916Z,2.47
2019-03-13T00:18:29.187Z,1.80
2019-03-13T00:20:59.047Z,3.00
2019-03-13T00:23:28.950Z,2.35
2019-03-13T00:25:59.158Z,3.45
2019-03-13T00:28:28.985Z,2.22
2019-03-13T00:30:58.870Z,2.58
2019-03-13T00:33:28.744Z,2.27
2019-03-13T00:35:58.546Z,2.58
2019-03-13T00:38:28.407Z,2.70
2019-03-13T00:40:58.211Z,1.87
2019-03-13T00:43:28.088Z,2.80
2019-03-13T00:45:58.875Z,2.00
2019-03-13T00:48:28.680Z,6.22
2019-03-13T00:50:59.675Z,2.70
2019-03-13T00:53:29.923Z,4.22
2019-03-13T00:56:00.152Z,2.67
2019-03-13T00:58:30.395Z,3.00
2019-03-13T01:01:02.235Z,2.85
2019-03-13T01:03:36.462Z,2.12
2019-03-13T01:06:14.146Z,1.87
2019-03-13T01:08:44.001Z,2.25
2019-03-13T01:11:13.913Z,2.65
2019-03-13T01:13:43.793Z,3.17
2019-03-13T01:16:13.796Z,2.75
2019-03-13T01:18:43.919Z,2.12
2019-03-13T01:21:13.796Z,4.80
2019-03-13T01:23:43.686Z,4.60
2019-03-13T01:26:13.566Z,2.20
2019-03-13T01:28:44.443Z,2.50
2019-03-13T01:31:21.553Z,3.25
2019-03-13T01:33:51.440Z,2.17
2019-03-13T01:36:21.402Z,1.55
2019-03-13T01:38:51.300Z,2.08
2019-03-13T01:41:21.163Z,2.30
2019-03-13T01:43:52.074Z,1.57
2019-03-13T01:46:21.849Z,4.15
2019-03-13T01:48:51.740Z,2.20
2019-03-13T01:51:21.899Z,4.83
2019-03-13T01:53:52.272Z,2.10
2019-03-13T01:56:22.056Z,1.60
2019-03-13T01:58:51.850Z,2.85
2019-03-13T02:01:21.810Z,2.20
2019-03-13T02:03:52.003Z,2.80
2019-03-13T02:06:22.148Z,2.30
2019-03-13T02:08:52.019Z,2.17
2019-03-13T02:11:21.891Z,1.92
2019-03-13T02:13:52.079Z,1.70
2019-03-13T02:16:22.310Z,1.82
2019-03-13T02:18:52.238Z,2.62
2019-03-13T02:21:22.156Z,2.05
2019-03-13T02:23:52.073Z,1.92
2019-03-13T02:26:22.373Z,1.75
2019-03-13T02:28:52.714Z,2.37
2019-03-13T02:31:22.928Z,2.62
2019-03-13T02:33:52.713Z,1.65
2019-03-13T02:36:22.561Z,2.35
2019-03-13T02:38:52.379Z,1.55
2019-03-13T02:41:22.190Z,1.70
2019-03-13T02:43:52.057Z,2.50
2019-03-13T02:46:21.950Z,2.47
2019-03-13T02:48:52.228Z,2.67
2019-03-13T02:51:22.446Z,1.70
2019-03-13T02:53:52.243Z,2.20
2019-03-13T02:56:22.117Z,2.35
2019-03-13T02:58:52.995Z,2.72
2019-03-13T03:01:25.812Z,2.85
2019-03-13T03:03:57.265Z,2.12
2019-03-13T03:06:27.272Z,2.83
2019-03-13T03:08:57.078Z,1.85
2019-03-13T03:11:27.020Z,4.05
2019-03-13T03:13:56.979Z,3.05
2019-03-13T03:16:27.131Z,2.50
2019-03-13T03:18:57.201Z,2.33
2019-03-13T03:21:27.078Z,1.70
2019-03-13T03:23:56.875Z,4.62
2019-03-13T03:26:26.735Z,2.33
2019-03-13T03:28:56.536Z,3.83
2019-03-13T03:31:26.453Z,1.52
2019-03-13T03:34:00.120Z,1.85
2019-03-13T03:36:30.088Z,1.55
2019-03-13T03:38:59.884Z,3.58
2019-03-13T03:41:30.174Z,1.95
2019-03-13T03:44:00.280Z,2.75
2019-03-13T03:46:30.456Z,1.42
2019-03-13T03:49:00.712Z,1.70
2019-03-13T03:51:30.572Z,4.28
2019-03-13T03:54:00.364Z,1.75
2019-03-13T03:56:30.341Z,2.10
2019-03-13T03:59:01.221Z,3.58
2019-03-13T04:01:31.022Z,2.40
2019-03-13T04:04:00.902Z,2.42
2019-03-13T04:06:30.751Z,3.25
2019-03-13T04:09:00.554Z,2.00
2019-03-13T04:11:32.038Z,2.33
2019-03-13T04:14:01.917Z,2.90
2019-03-13T04:16:31.860Z,2.27
2019-03-13T04:19:01.704Z,2.02
2019-03-13T04:21:31.485Z,2.80
2019-03-13T04:24:01.376Z,3.65
2019-03-13T04:26:31.597Z,2.33
2019-03-13T04:29:01.826Z,2.42
2019-03-13T04:31:31.984Z,9.28
2019-03-13T04:34:02.125Z,2.60
2019-03-13T04:36:32.265Z,3.33
2019-03-13T04:39:02.199Z,2.80
2019-03-13T04:41:33.623Z,2.00
2019-03-13T04:44:03.869Z,4.05
2019-03-13T04:46:33.983Z,2.40
2019-03-13T04:49:03.851Z,3.70
2019-03-13T04:51:33.720Z,2.65
2019-03-13T04:54:03.588Z,3.08
2019-03-13T04:56:33.472Z,2.85
2019-03-13T04:59:03.426Z,2.50
2019-03-13T05:01:33.493Z,6.33
2019-03-13T05:04:03.303Z,3.70
2019-03-13T05:06:33.393Z,1.70
2019-03-13T05:09:04.907Z,3.83
2019-03-13T05:11:34.886Z,3.33
2019-03-13T05:14:04.699Z,6.35
2019-03-13T05:16:34.568Z,4.15
2019-03-13T05:19:04.462Z,2.08
2019-03-13T05:21:34.636Z,5.30
2019-03-13T05:24:04.469Z,6.12
2019-03-13T05:26:34.554Z,3.77
2019-03-13T05:29:04.389Z,3.22
2019-03-13T05:31:34.225Z,4.53
2019-03-13T05:34:04.069Z,2.37
2019-03-13T05:36:33.955Z,3.10
2019-03-13T05:39:05.298Z,4.35
2019-03-13T05:41:35.270Z,3.08
2019-03-13T05:44:05.157Z,2.87
2019-03-13T05:46:34.990Z,4.90
2019-03-13T05:49:04.837Z,3.92
2019-03-13T05:51:34.671Z,2.90
2019-03-13T05:54:04.531Z,6.40
2019-03-13T05:56:34.646Z,3.33
2019-03-13T05:59:04.493Z,6.75
2019-03-13T06:01:34.512Z,4.72
2019-03-13T06:04:04.385Z,4.15
2019-03-13T06:06:34.648Z,4.65
2019-03-13T06:09:06.583Z,4.25
2019-03-13T06:11:36.816Z,2.55
2019-03-13T06:14:06.610Z,3.95
2019-03-13T06:16:36.436Z,5.90
2019-03-13T06:19:06.760Z,6.58
2019-03-13T06:21:36.658Z,10.63
2019-03-13T06:24:06.907Z,11.70
2019-03-13T06:26:36.729Z,8.35
2019-03-13T06:29:07.044Z,4.50
2019-03-13T06:31:36.859Z,9.03
2019-03-13T06:34:06.741Z,10.30
2019-03-13T06:36:36.665Z,11.63
2019-03-13T06:39:07.973Z,6.65
2019-03-13T06:41:38.123Z,7.22
2019-03-13T06:44:08.009Z,6.58
2019-03-13T06:46:37.868Z,5.50
2019-03-13T06:49:07.762Z,9.35
2019-03-13T06:51:37.674Z,10.60
2019-03-13T06:54:07.542Z,6.53
2019-03-13T06:56:37.816Z,3.67
2019-03-13T06:59:13.453Z,7.75
2019-03-13T07:01:51.910Z,12.63
2019-03-13T07:04:23.464Z,4.08
2019-03-13T07:07:00.856Z,6.22
2019-03-13T07:09:41.292Z,5.37
2019-03-13T07:12:13.245Z,4.30
2019-03-13T07:14:48.099Z,5.00
2019-03-13T07:17:19.631Z,7.15
2019-03-13T07:20:03.263Z,6.10
2019-03-13T07:25:22.687Z,4.42
2019-03-13T07:28:10.514Z,6.80
2019-03-13T07:30:51.290Z,4.22
2019-03-13T07:33:39.330Z,8.20
2019-03-13T07:36:11.372Z,11.08
2019-03-13T07:38:45.690Z,7.83
2019-03-13T07:41:23.195Z,7.20
2019-03-13T07:43:57.725Z,7.67
2019-03-13T07:46:44.398Z,6.80
2019-03-13T07:49:15.855Z,5.75
2019-03-13T07:51:56.641Z,6.78
2019-03-13T07:54:34.339Z,8.85
2019-03-13T07:57:11.608Z,5.97
2019-03-13T07:59:43.158Z,7.55
2019-03-13T08:02:17.512Z,6.10
2019-03-13T08:04:49.266Z,5.42
2019-03-13T08:07:20.702Z,5.22
2019-03-13T08:09:52.272Z,9.38
2019-03-13T08:12:35.841Z,9.65
2019-03-13T08:15:10.536Z,11.73
2019-03-13T08:17:42.381Z,13.28
2019-03-13T08:20:26.324Z,15.85
2019-03-13T08:23:03.798Z,16.15
2019-03-13T08:25:47.563Z,19.75
2019-03-13T08:30:52.042Z,18.52
2019-03-13T08:33:29.599Z,20.48
2019-03-13T08:36:19.064Z,18.12
2019-03-13T08:38:50.504Z,19.95
2019-03-13T08:41:22.041Z,19.00
2019-03-13T08:44:10.174Z,25.52
2019-03-13T08:46:53.956Z,16.57
2019-03-13T08:49:31.161Z,18.92
2019-03-13T08:52:05.671Z,17.92
2019-03-13T08:54:37.100Z,18.67
2019-03-13T08:57:12.127Z,19.92
2019-03-13T09:00:01.931Z,17.00
2019-03-13T09:02:40.744Z,17.30
2019-03-13T09:05:15.345Z,17.98
2019-03-13T09:07:46.780Z,15.20
2019-03-13T09:10:34.966Z,18.07
2019-03-13T09:13:12.205Z,16.77
2019-03-13T09:15:59.843Z,18.95
2019-03-13T09:18:31.640Z,17.40
2019-03-13T09:21:06.365Z,16.55
2019-03-13T09:23:46.808Z,15.60
2019-03-13T09:26:24.481Z,18.15
2019-03-13T09:28:59.462Z,19.15
2019-03-13T09:31:34.085Z,13.08
2019-03-13T09:34:08.685Z,18.77
2019-03-13T09:36:40.120Z,17.55
2019-03-13T09:39:11.842Z,16.17
2019-03-13T09:41:52.717Z,13.90
2019-03-13T09:44:24.206Z,14.35
2019-03-13T09:47:07.376Z,14.07
2019-03-13T09:49:39.878Z,14.85
2019-03-13T09:52:14.045Z,15.13
2019-03-13T09:54:45.485Z,13.30
2019-03-13T09:57:19.718Z,12.25
2019-03-13T09:59:51.477Z,13.95
2019-03-13T10:02:23.005Z,14.83
2019-03-13T10:05:10.822Z,14.28
2019-03-13T10:07:48.530Z,13.78
2019-03-13T10:10:26.316Z,13.25
2019-03-13T10:12:58.712Z,11.60
2019-03-13T10:15:35.981Z,15.38
2019-03-13T10:18:17.611Z,8.33
2019-03-13T10:20:54.765Z,12.63
2019-03-13T10:23:29.212Z,12.35
2019-03-13T10:26:03.384Z,11.63
2019-03-13T10:28:34.829Z,12.55
2019-03-13T10:31:21.592Z,10.65
2019-03-13T10:34:11.097Z,13.08
2019-03-13T10:36:58.181Z,12.30
2019-03-13T10:39:44.718Z,9.88
2019-03-13T10:42:31.304Z,10.20
2019-03-13T10:45:20.724Z,10.15
2019-03-13T10:47:52.532Z,9.78
2019-03-13T10:50:26.846Z,9.40
2019-03-13T10:53:13.717Z,12.45
2019-03-13T10:55:45.694Z,10.98
2019-03-13T10:58:17.140Z,11.93
2019-03-13T11:00:48.661Z,11.38
2019-03-13T11:03:23.059Z,15.55
2019-03-13T11:05:57.306Z,13.65
2019-03-13T11:08:41.745Z,12.63
2019-03-13T11:11:25.282Z,15.43
2019-03-13T11:14:16.154Z,18.77
2019-03-13T11:16:50.436Z,11.65
2019-03-13T11:19:21.873Z,15.95
2019-03-13T11:22:02.599Z,14.18
2019-03-13T11:24:34.563Z,15.18
2019-03-13T11:27:05.965Z,10.72
2019-03-13T11:29:40.390Z,17.85
2019-03-13T11:32:24.148Z,15.80
2019-03-13T11:35:04.327Z,19.00
2019-03-13T11:37:41.599Z,17.73
2019-03-13T11:40:17.268Z,19.50
2019-03-13T11:42:49.114Z,15.35
2019-03-13T11:45:20.744Z,17.23
2019-03-13T11:47:58.086Z,14.98
2019-03-13T11:50:32.629Z,14.28
2019-03-13T11:53:06.977Z,17.17
2019-03-13T11:55:44.934Z,15.83
2019-03-13T11:58:19.064Z,12.78
2019-03-13T12:00:53.244Z,19.15
2019-03-13T12:03:25.067Z,17.25
2019-03-13T12:06:13.415Z,22.98
2019-03-13T12:09:01.888Z,17.80
2019-03-13T12:11:40.690Z,19.48
2019-03-13T12:14:30.486Z,19.82
2019-03-13T12:17:07.794Z,22.93
2019-03-13T12:19:39.306Z,18.07
2019-03-13T12:22:13.728Z,16.73
2019-03-13T12:25:01.753Z,21.20
2019-03-13T12:27:33.570Z,15.98
2019-03-13T12:30:43.729Z,19.45
2019-03-13T12:33:31.686Z,20.35
2019-03-13T12:36:12.618Z,22.82
2019-03-13T12:38:44.377Z,14.25
2019-03-13T12:41:18.574Z,12.93
2019-03-13T12:43:53.026Z,14.78
2019-03-13T12:46:24.480Z,14.60
2019-03-13T12:48:58.756Z,13.80
2019-03-13T12:51:46.474Z,17.00
2019-03-13T12:54:18.191Z,13.72
2019-03-13T12:57:01.788Z,13.15
2019-03-13T13:02:07.067Z,14.87
2019-03-13T13:04:44.249Z,15.35
2019-03-13T13:07:15.681Z,14.18
2019-03-13T13:10:05.584Z,13.35
2019-03-13T13:12:40.942Z,11.38
2019-03-13T13:15:29.254Z,18.02
2019-03-13T13:18:00.689Z,16.62
2019-03-13T13:20:30.558Z,11.05
2019-03-13T13:23:00.417Z,9.68
2019-03-13T13:25:30.484Z,17.40
2019-03-13T13:28:00.693Z,14.55
2019-03-13T13:30:30.576Z,12.37
2019-03-13T13:33:00.412Z,13.30
2019-03-13T13:35:30.193Z,15.80
2019-03-13T13:38:00.270Z,16.57
2019-03-13T13:40:30.102Z,10.43
2019-03-13T13:43:00.158Z,11.57
2019-03-13T13:45:33.552Z,9.73
2019-03-13T13:48:03.531Z,11.95
2019-03-13T13:50:33.334Z,9.83
2019-03-13T13:53:03.192Z,12.75
2019-03-13T13:55:32.991Z,13.28
2019-03-13T13:58:03.145Z,11.45
2019-03-13T14:00:33.266Z,10.05
2019-03-13T14:03:03.336Z,13.43
2019-03-13T14:05:33.582Z,12.63
2019-03-13T14:08:03.378Z,9.05
2019-03-13T14:10:33.171Z,12.85
2019-03-13T14:13:03.021Z,8.88
2019-03-13T14:15:32.833Z,9.50
2019-03-13T14:18:02.665Z,9.18
2019-03-13T14:20:32.741Z,10.45
2019-03-13T14:23:02.650Z,8.65
2019-03-13T14:25:32.500Z,7.90
2019-03-13T14:28:02.318Z,6.22
2019-03-13T14:30:32.112Z,9.03
2019-03-13T14:33:02.373Z,7.47
2019-03-13T14:35:33.173Z,7.50
2019-03-13T14:38:03.033Z,6.42
2019-03-13T14:40:32.834Z,7.85
2019-03-13T14:43:02.918Z,6.03
2019-03-13T14:45:33.061Z,11.00
2019-03-13T14:48:03.188Z,6.25
2019-03-13T14:50:36.301Z,9.45
2019-03-13T14:53:05.778Z,14.10
2019-03-13T14:55:35.722Z,9.88
2019-03-13T14:58:05.504Z,5.92
2019-03-13T15:00:35.294Z,6.65
2019-03-13T15:03:05.583Z,6.50
2019-03-13T15:05:35.837Z,10.45
2019-03-13T15:08:05.698Z,5.60
2019-03-13T15:10:35.562Z,7.92
2019-03-13T15:13:05.417Z,4.83
2019-03-13T15:15:35.205Z,5.67
2019-03-13T15:18:05.335Z,7.10
2019-03-13T15:20:35.123Z,6.50
2019-03-13T15:23:07.404Z,10.93
2019-03-13T15:25:36.578Z,4.97
2019-03-13T15:28:06.445Z,7.20
2019-03-13T15:30:36.227Z,7.03
2019-03-13T15:33:06.020Z,8.00
2019-03-13T15:35:36.169Z,5.37
2019-03-13T15:38:05.961Z,6.70
2019-03-13T15:40:35.756Z,6.12
2019-03-13T15:43:05.909Z,7.67
2019-03-13T15:45:36.112Z,4.85
2019-03-13T15:48:06.253Z,6.30
2019-03-13T15:50:36.054Z,5.22
2019-03-13T15:53:05.841Z,5.70
2019-03-13T15:55:35.632Z,6.62
2019-03-13T15:58:05.811Z,6.92
2019-03-13T16:00:35.705Z,4.28
2019-03-13T16:03:05.556Z,6.15
2019-03-13T16:05:35.329Z,3.17
2019-03-13T16:08:05.130Z,6.37
2019-03-13T16:10:34.912Z,6.78
2019-03-13T16:13:05.982Z,8.58
2019-03-13T16:15:37.409Z,8.13
2019-03-13T16:18:07.692Z,5.17
2019-03-13T16:20:37.513Z,6.47
2019-03-13T16:23:07.725Z,4.80
2019-03-13T16:25:37.577Z,7.35
2019-03-13T16:28:07.468Z,4.00
2019-03-13T16:30:41.652Z,5.08
2019-03-13T16:33:11.657Z,9.98
2019-03-13T16:35:41.449Z,4.33
2019-03-13T16:38:11.255Z,5.90
2019-03-13T16:40:41.365Z,5.92
2019-03-13T16:43:11.653Z,4.75
2019-03-13T16:45:41.786Z,7.50
2019-03-13T16:48:12.091Z,4.67
2019-03-13T16:50:42.318Z,5.83
2019-03-13T16:53:12.111Z,3.27
2019-03-13T16:55:42.246Z,9.83
2019-03-13T16:58:12.468Z,6.28
2019-03-13T17:00:43.617Z,4.30
2019-03-13T17:03:13.405Z,8.08
2019-03-13T17:05:43.198Z,5.65
2019-03-13T17:08:13.061Z,4.67
2019-03-13T17:10:42.856Z,5.37
2019-03-13T17:13:12.981Z,7.92
2019-03-13T17:15:42.976Z,4.87
2019-03-13T17:18:13.511Z,8.85
2019-03-13T17:20:43.376Z,5.70
2019-03-13T17:23:13.563Z,3.65
2019-03-13T17:25:43.360Z,6.83
2019-03-13T17:28:13.213Z,5.80
2019-03-13T17:30:43.342Z,6.08
2019-03-13T17:33:13.609Z,4.80
2019-03-13T17:35:43.421Z,5.85
2019-03-13T17:38:13.223Z,7.87
2019-03-13T17:40:43.081Z,7.95
2019-03-13T17:43:13.186Z,7.83
2019-03-13T17:45:42.972Z,6.83
2019-03-13T17:48:12.846Z,10.75
2019-03-13T17:50:42.652Z,9.58
2019-03-13T17:53:12.807Z,8.30
2019-03-13T17:55:42.860Z,9.85
2019-03-13T17:58:13.201Z,8.53
2019-03-13T18:00:44.694Z,6.28
2019-03-13T18:03:16.060Z,14.58
2019-03-13T18:05:45.930Z,17.80
2019-03-13T18:08:15.729Z,20.62
2019-03-13T18:10:45.523Z,37.10
2019-03-13T18:13:16.853Z,58.28
2019-03-13T18:15:46.657Z,54.80
2019-03-13T18:18:16.809Z,59.73
2019-03-13T18:20:46.897Z,61.55
2019-03-13T18:23:16.700Z,62.43
2019-03-13T18:25:46.564Z,55.28
2019-03-13T18:28:16.486Z,48.73
2019-03-13T18:30:46.357Z,47.80
2019-03-13T18:33:16.239Z,39.85
2019-03-13T18:35:46.414Z,48.02
2019-03-13T18:38:16.571Z,41.63
2019-03-13T18:40:46.425Z,43.90
2019-03-13T18:43:16.235Z,43.52
2019-03-13T18:45:46.111Z,43.48
2019-03-13T18:48:16.292Z,39.00
2019-03-13T18:50:46.105Z,42.73
2019-03-13T18:53:15.917Z,37.48
2019-03-13T18:55:47.170Z,31.68
